sensor_id;sensor_type;location;lat;lon;timestamp;temperature;humidity
69492;DHT22;56692;52.016;4.356;2023-04-01T00:00:23;16.00;58.80
69492;DHT22;56692;52.016;4.356;2023-04-01T00:02:48;15.90;58.80
69492;DHT22;56692;52.016;4.356;2023-04-01T00:05:14;16.00;58.80
69492;DHT22;56692;52.016;4.356;2023-04-01T00:07:42;15.90;58.90
69492;DHT22;56692;52.016;4.356;2023-04-01T00:10:10;15.90;58.80
69492;DHT22;56692;52.016;4.356;2023-04-01T00:12:36;15.90;58.90
69492;DHT22;56692;52.016;4.356;2023-04-01T00:15:03;15.90;58.90
69492;DHT22;56692;52.016;4.356;2023-04-01T00:17:29;15.90;59.00
69492;DHT22;56692;52.016;4.356;2023-04-01T00:19:56;15.90;59.00
69492;DHT22;56692;52.016;4.356;2023-04-01T00:22:23;15.90;59.10
69492;DHT22;56692;52.016;4.356;2023-04-01T00:24:49;15.90;59.00
69492;DHT22;56692;52.016;4.356;2023-04-01T00:27:15;15.90;59.10
69492;DHT22;56692;52.016;4.356;2023-04-01T00:29:45;15.90;59.10
69492;DHT22;56692;52.016;4.356;2023-04-01T00:32:11;15.90;59.10
69492;DHT22;56692;52.016;4.356;2023-04-01T00:34:37;15.90;59.10
69492;DHT22;56692;52.016;4.356;2023-04-01T00:37:03;15.90;59.10
69492;DHT22;56692;52.016;4.356;2023-04-01T00:39:32;15.90;59.20
69492;DHT22;56692;52.016;4.356;2023-04-01T00:41:59;15.90;59.20
69492;DHT22;56692;52.016;4.356;2023-04-01T00:44:28;15.80;59.30
69492;DHT22;56692;52.016;4.356;2023-04-01T00:46:55;15.80;59.30
69492;DHT22;56692;52.016;4.356;2023-04-01T00:49:24;15.80;59.30
69492;DHT22;56692;52.016;4.356;2023-04-01T00:51:54;15.80;59.40
69492;DHT22;56692;52.016;4.356;2023-04-01T00:54:23;15.80;59.40
69492;DHT22;56692;52.016;4.356;2023-04-01T00:56:54;15.80;59.40
69492;DHT22;56692;52.016;4.356;2023-04-01T00:59:43;15.80;59.40
69492;DHT22;56692;52.016;4.356;2023-04-01T01:02:11;15.80;59.40
69492;DHT22;56692;52.016;4.356;2023-04-01T01:04:38;15.80;59.50
69492;DHT22;56692;52.016;4.356;2023-04-01T01:15:21;15.80;59.60
69492;DHT22;56692;52.016;4.356;2023-04-01T01:17:58;15.80;59.50
69492;DHT22;56692;52.016;4.356;2023-04-01T01:20:48;15.80;59.50
69492;DHT22;56692;52.016;4.356;2023-04-01T01:37:10;15.70;59.50
69492;DHT22;56692;52.016;4.356;2023-04-01T01:39:37;15.80;59.60
69492;DHT22;56692;52.016;4.356;2023-04-01T01:42:06;15.70;59.60
69492;DHT22;56692;52.016;4.356;2023-04-01T01:44:35;15.70;59.60
69492;DHT22;56692;52.016;4.356;2023-04-01T01:47:01;15.70;59.60
69492;DHT22;56692;52.016;4.356;2023-04-01T01:49:28;15.80;59.60
69492;DHT22;56692;52.016;4.356;2023-04-01T01:51:56;15.70;59.60
69492;DHT22;56692;52.016;4.356;2023-04-01T01:54:22;15.70;59.60
69492;DHT22;56692;52.016;4.356;2023-04-01T01:56:51;15.70;59.60
69492;DHT22;56692;52.016;4.356;2023-04-01T01:59:22;15.80;59.60
69492;DHT22;56692;52.016;4.356;2023-04-01T02:01:52;15.70;59.60
69492;DHT22;56692;52.016;4.356;2023-04-01T02:04:20;15.70;59.70
69492;DHT22;56692;52.016;4.356;2023-04-01T02:06:54;15.70;59.70
69492;DHT22;56692;52.016;4.356;2023-04-01T02:09:21;15.70;59.70
69492;DHT22;56692;52.016;4.356;2023-04-01T02:11:59;15.70;59.80
69492;DHT22;56692;52.016;4.356;2023-04-01T02:17:34;15.70;59.70
69492;DHT22;56692;52.016;4.356;2023-04-01T02:20:08;15.70;59.60
69492;DHT22;56692;52.016;4.356;2023-04-01T02:22:41;15.70;59.70
69492;DHT22;56692;52.016;4.356;2023-04-01T02:25:12;15.70;59.70
69492;DHT22;56692;52.016;4.356;2023-04-01T02:27:39;15.70;59.70
69492;DHT22;56692;52.016;4.356;2023-04-01T02:30:06;15.70;59.70
69492;DHT22;56692;52.016;4.356;2023-04-01T02:32:34;15.70;59.70
69492;DHT22;56692;52.016;4.356;2023-04-01T02:35:01;15.70;59.70
69492;DHT22;56692;52.016;4.356;2023-04-01T02:37:31;15.70;59.80
69492;DHT22;56692;52.016;4.356;2023-04-01T02:40:07;15.70;59.70
69492;DHT22;56692;52.016;4.356;2023-04-01T02:42:33;15.70;59.70
69492;DHT22;56692;52.016;4.356;2023-04-01T02:44:59;15.70;59.80
69492;DHT22;56692;52.016;4.356;2023-04-01T02:47:25;15.70;59.70
69492;DHT22;56692;52.016;4.356;2023-04-01T02:49:51;15.60;59.70
69492;DHT22;56692;52.016;4.356;2023-04-01T02:52:27;15.60;59.70
69492;DHT22;56692;52.016;4.356;2023-04-01T02:54:54;15.60;59.80
69492;DHT22;56692;52.016;4.356;2023-04-01T02:57:20;15.60;59.80
69492;DHT22;56692;52.016;4.356;2023-04-01T02:59:46;15.60;59.80
69492;DHT22;56692;52.016;4.356;2023-04-01T03:02:12;15.60;59.80
69492;DHT22;56692;52.016;4.356;2023-04-01T03:04:37;15.60;59.70
69492;DHT22;56692;52.016;4.356;2023-04-01T03:07:03;15.60;59.80
69492;DHT22;56692;52.016;4.356;2023-04-01T03:09:29;15.60;59.70
69492;DHT22;56692;52.016;4.356;2023-04-01T03:11:55;15.60;59.80
69492;DHT22;56692;52.016;4.356;2023-04-01T03:14:21;15.60;59.80
69492;DHT22;56692;52.016;4.356;2023-04-01T03:16:47;15.60;59.80
69492;DHT22;56692;52.016;4.356;2023-04-01T03:19:12;15.60;59.80
69492;DHT22;56692;52.016;4.356;2023-04-01T03:21:38;15.60;59.80
69492;DHT22;56692;52.016;4.356;2023-04-01T03:24:04;15.60;59.80
69492;DHT22;56692;52.016;4.356;2023-04-01T03:26:30;15.60;59.80
69492;DHT22;56692;52.016;4.356;2023-04-01T03:28:55;15.60;59.80
69492;DHT22;56692;52.016;4.356;2023-04-01T03:31:21;15.60;59.80
69492;DHT22;56692;52.016;4.356;2023-04-01T03:33:47;15.60;59.80
69492;DHT22;56692;52.016;4.356;2023-04-01T03:36:13;15.60;59.80
69492;DHT22;56692;52.016;4.356;2023-04-01T03:38:43;15.60;59.80
69492;DHT22;56692;52.016;4.356;2023-04-01T03:41:16;15.60;59.80
69492;DHT22;56692;52.016;4.356;2023-04-01T03:43:42;15.60;59.80
69492;DHT22;56692;52.016;4.356;2023-04-01T03:46:08;15.60;59.80
69492;DHT22;56692;52.016;4.356;2023-04-01T03:48:34;15.60;59.80
69492;DHT22;56692;52.016;4.356;2023-04-01T03:51:00;15.60;59.80
69492;DHT22;56692;52.016;4.356;2023-04-01T03:53:26;15.60;59.80
69492;DHT22;56692;52.016;4.356;2023-04-01T03:55:53;15.60;59.90
69492;DHT22;56692;52.016;4.356;2023-04-01T03:58:19;15.60;59.80
69492;DHT22;56692;52.016;4.356;2023-04-01T04:00:45;15.60;59.90
69492;DHT22;56692;52.016;4.356;2023-04-01T04:03:11;15.60;59.80
69492;DHT22;56692;52.016;4.356;2023-04-01T04:05:37;15.60;59.80
69492;DHT22;56692;52.016;4.356;2023-04-01T04:08:03;15.60;59.90
69492;DHT22;56692;52.016;4.356;2023-04-01T04:10:29;15.60;59.90
69492;DHT22;56692;52.016;4.356;2023-04-01T04:12:55;15.60;59.90
69492;DHT22;56692;52.016;4.356;2023-04-01T04:15:22;15.60;59.70
69492;DHT22;56692;52.016;4.356;2023-04-01T04:17:48;15.60;59.80
69492;DHT22;56692;52.016;4.356;2023-04-01T04:20:14;15.60;59.90
69492;DHT22;56692;52.016;4.356;2023-04-01T04:22:40;15.60;59.90
69492;DHT22;56692;52.016;4.356;2023-04-01T04:25:06;15.60;59.80
69492;DHT22;56692;52.016;4.356;2023-04-01T04:27:33;15.60;59.90
69492;DHT22;56692;52.016;4.356;2023-04-01T04:29:59;15.60;59.80
69492;DHT22;56692;52.016;4.356;2023-04-01T04:32:24;15.60;59.90
69492;DHT22;56692;52.016;4.356;2023-04-01T04:34:50;15.50;59.80
69492;DHT22;56692;52.016;4.356;2023-04-01T04:37:16;15.50;59.80
69492;DHT22;56692;52.016;4.356;2023-04-01T04:39:41;15.60;59.80
69492;DHT22;56692;52.016;4.356;2023-04-01T04:42:07;15.50;59.80
69492;DHT22;56692;52.016;4.356;2023-04-01T04:44:33;15.50;59.80
69492;DHT22;56692;52.016;4.356;2023-04-01T04:46:59;15.60;59.80
69492;DHT22;56692;52.016;4.356;2023-04-01T04:49:24;15.50;59.80
69492;DHT22;56692;52.016;4.356;2023-04-01T04:51:50;15.50;59.80
69492;DHT22;56692;52.016;4.356;2023-04-01T04:54:15;15.50;59.80
69492;DHT22;56692;52.016;4.356;2023-04-01T04:56:41;15.60;59.80
69492;DHT22;56692;52.016;4.356;2023-04-01T04:59:07;15.50;59.80
69492;DHT22;56692;52.016;4.356;2023-04-01T05:01:33;15.50;59.70
69492;DHT22;56692;52.016;4.356;2023-04-01T05:03:59;15.50;59.70
69492;DHT22;56692;52.016;4.356;2023-04-01T05:06:25;15.50;59.80
69492;DHT22;56692;52.016;4.356;2023-04-01T05:08:54;15.50;59.70
69492;DHT22;56692;52.016;4.356;2023-04-01T05:11:20;15.50;59.80
69492;DHT22;56692;52.016;4.356;2023-04-01T05:13:46;15.50;59.80
69492;DHT22;56692;52.016;4.356;2023-04-01T05:16:15;15.50;59.70
69492;DHT22;56692;52.016;4.356;2023-04-01T05:18:41;15.50;59.80
69492;DHT22;56692;52.016;4.356;2023-04-01T05:21:08;15.50;59.80
69492;DHT22;56692;52.016;4.356;2023-04-01T05:23:35;15.50;59.80
69492;DHT22;56692;52.016;4.356;2023-04-01T05:26:12;15.50;59.70
69492;DHT22;56692;52.016;4.356;2023-04-01T05:28:38;15.50;59.70
69492;DHT22;56692;52.016;4.356;2023-04-01T05:31:05;15.50;59.80
69492;DHT22;56692;52.016;4.356;2023-04-01T05:33:31;15.50;59.70
69492;DHT22;56692;52.016;4.356;2023-04-01T05:36:11;15.50;59.70
69492;DHT22;56692;52.016;4.356;2023-04-01T05:38:38;15.50;59.70
69492;DHT22;56692;52.016;4.356;2023-04-01T05:41:04;15.50;59.70
69492;DHT22;56692;52.016;4.356;2023-04-01T05:43:30;15.50;59.60
69492;DHT22;56692;52.016;4.356;2023-04-01T05:45:56;15.50;59.70
69492;DHT22;56692;52.016;4.356;2023-04-01T05:48:22;15.50;59.70
69492;DHT22;56692;52.016;4.356;2023-04-01T05:50:48;15.50;59.70
69492;DHT22;56692;52.016;4.356;2023-04-01T05:53:13;15.50;59.60
69492;DHT22;56692;52.016;4.356;2023-04-01T05:55:39;15.50;59.60
69492;DHT22;56692;52.016;4.356;2023-04-01T05:58:05;15.50;59.60
69492;DHT22;56692;52.016;4.356;2023-04-01T06:00:30;15.50;59.70
69492;DHT22;56692;52.016;4.356;2023-04-01T06:02:59;15.50;59.70
69492;DHT22;56692;52.016;4.356;2023-04-01T06:05:28;15.50;59.70
69492;DHT22;56692;52.016;4.356;2023-04-01T06:08:00;15.50;59.60
69492;DHT22;56692;52.016;4.356;2023-04-01T06:13:47;15.50;59.60
69492;DHT22;56692;52.016;4.356;2023-04-01T06:16:18;15.50;59.60
69492;DHT22;56692;52.016;4.356;2023-04-01T06:21:54;15.50;59.60
69492;DHT22;56692;52.016;4.356;2023-04-01T06:39:01;15.50;59.50
69492;DHT22;56692;52.016;4.356;2023-04-01T06:47:09;15.50;59.40
69492;DHT22;56692;52.016;4.356;2023-04-01T06:50:00;15.60;59.40
69492;DHT22;56692;52.016;4.356;2023-04-01T06:53:16;15.50;59.40
69492;DHT22;56692;52.016;4.356;2023-04-01T06:55:50;15.60;59.30
69492;DHT22;56692;52.016;4.356;2023-04-01T06:58:26;15.60;59.40
69492;DHT22;56692;52.016;4.356;2023-04-01T07:01:22;15.60;59.30
69492;DHT22;56692;52.016;4.356;2023-04-01T07:03:58;15.50;59.30
69492;DHT22;56692;52.016;4.356;2023-04-01T07:09:05;15.60;59.30
69492;DHT22;56692;52.016;4.356;2023-04-01T07:11:34;15.60;59.30
69492;DHT22;56692;52.016;4.356;2023-04-01T07:14:23;15.60;59.30
69492;DHT22;56692;52.016;4.356;2023-04-01T07:17:14;15.60;59.30
69492;DHT22;56692;52.016;4.356;2023-04-01T07:22:38;15.60;59.20
69492;DHT22;56692;52.016;4.356;2023-04-01T07:25:35;15.60;59.30
69492;DHT22;56692;52.016;4.356;2023-04-01T07:28:20;15.60;59.30
69492;DHT22;56692;52.016;4.356;2023-04-01T07:34:04;15.60;59.30
69492;DHT22;56692;52.016;4.356;2023-04-01T07:36:46;15.60;59.30
69492;DHT22;56692;52.016;4.356;2023-04-01T07:39:31;15.60;59.30
69492;DHT22;56692;52.016;4.356;2023-04-01T07:49:53;15.60;59.20
69492;DHT22;56692;52.016;4.356;2023-04-01T07:55:16;15.60;59.30
69492;DHT22;56692;52.016;4.356;2023-04-01T08:01:13;15.60;59.30
69492;DHT22;56692;52.016;4.356;2023-04-01T08:04:02;15.60;59.30
69492;DHT22;56692;52.016;4.356;2023-04-01T08:09:50;15.60;59.30
69492;DHT22;56692;52.016;4.356;2023-04-01T08:31:24;15.90;59.20
69492;DHT22;56692;52.016;4.356;2023-04-01T08:33:54;15.90;59.50
69492;DHT22;56692;52.016;4.356;2023-04-01T08:36:35;16.00;59.40
69492;DHT22;56692;52.016;4.356;2023-04-01T08:43:10;16.30;59.10
69492;DHT22;56692;52.016;4.356;2023-04-01T08:45:18;16.40;59.00
69492;DHT22;56692;52.016;4.356;2023-04-01T08:50:48;16.60;58.70
69492;DHT22;56692;52.016;4.356;2023-04-01T08:53:31;16.70;58.40
69492;DHT22;56692;52.016;4.356;2023-04-01T09:02:23;17.00;57.80
69492;DHT22;56692;52.016;4.356;2023-04-01T09:07:40;17.00;58.10
69492;DHT22;56692;52.016;4.356;2023-04-01T09:21:24;17.20;57.80
69492;DHT22;56692;52.016;4.356;2023-04-01T09:24:14;17.20;57.70
69492;DHT22;56692;52.016;4.356;2023-04-01T09:27:16;17.30;57.40
69492;DHT22;56692;52.016;4.356;2023-04-01T09:32:26;17.00;57.70
69492;DHT22;56692;52.016;4.356;2023-04-01T09:46:23;16.70;58.60
69492;DHT22;56692;52.016;4.356;2023-04-01T10:00:38;16.60;58.80
69492;DHT22;56692;52.016;4.356;2023-04-01T10:47:19;17.60;58.10
69492;DHT22;56692;52.016;4.356;2023-04-01T10:50:08;17.60;58.20
69492;DHT22;56692;52.016;4.356;2023-04-01T10:55:36;17.80;57.70
69492;DHT22;56692;52.016;4.356;2023-04-01T11:18:57;18.10;56.70
69492;DHT22;56692;52.016;4.356;2023-04-01T11:30:08;18.20;56.60
69492;DHT22;56692;52.016;4.356;2023-04-01T11:32:29;18.20;56.70
69492;DHT22;56692;52.016;4.356;2023-04-01T11:35:54;18.30;56.40
69492;DHT22;56692;52.016;4.356;2023-04-01T11:41:02;18.40;56.20
69492;DHT22;56692;52.016;4.356;2023-04-01T11:43:49;18.40;56.20
69492;DHT22;56692;52.016;4.356;2023-04-01T11:52:39;18.50;55.90
69492;DHT22;56692;52.016;4.356;2023-04-01T11:55:19;18.60;55.80
69492;DHT22;56692;52.016;4.356;2023-04-01T12:06:08;18.60;55.70
69492;DHT22;56692;52.016;4.356;2023-04-01T12:08:46;18.60;55.70
69492;DHT22;56692;52.016;4.356;2023-04-01T12:39:17;18.60;55.60
69492;DHT22;56692;52.016;4.356;2023-04-01T12:53:09;18.10;56.50
69492;DHT22;56692;52.016;4.356;2023-04-01T12:55:40;18.10;56.60
69492;DHT22;56692;52.016;4.356;2023-04-01T12:58:40;18.00;56.80
69492;DHT22;56692;52.016;4.356;2023-04-01T13:01:35;18.00;57.00
69492;DHT22;56692;52.016;4.356;2023-04-01T13:10:19;18.00;57.10
69492;DHT22;56692;52.016;4.356;2023-04-01T13:13:15;17.90;57.10
69492;DHT22;56692;52.016;4.356;2023-04-01T13:15:52;17.90;57.20
69492;DHT22;56692;52.016;4.356;2023-04-01T13:26:53;17.80;57.40
69492;DHT22;56692;52.016;4.356;2023-04-01T13:32:29;18.10;57.10
69492;DHT22;56692;52.016;4.356;2023-04-01T13:38:18;18.20;56.80
69492;DHT22;56692;52.016;4.356;2023-04-01T13:43:39;18.40;56.40
69492;DHT22;56692;52.016;4.356;2023-04-01T13:52:39;18.50;55.90
69492;DHT22;56692;52.016;4.356;2023-04-01T14:03:49;18.60;55.60
69492;DHT22;56692;52.016;4.356;2023-04-01T14:06:25;18.70;55.70
69492;DHT22;56692;52.016;4.356;2023-04-01T14:20:22;18.90;55.70
69492;DHT22;56692;52.016;4.356;2023-04-01T14:42:36;19.20;55.60
69492;DHT22;56692;52.016;4.356;2023-04-01T14:50:50;19.30;55.60
69492;DHT22;56692;52.016;4.356;2023-04-01T14:53:27;19.20;55.80
69492;DHT22;56692;52.016;4.356;2023-04-01T14:55:56;19.20;56.00
69492;DHT22;56692;52.016;4.356;2023-04-01T14:58:23;19.10;56.30
69492;DHT22;56692;52.016;4.356;2023-04-01T15:06:57;18.80;56.60
69492;DHT22;56692;52.016;4.356;2023-04-01T15:18:03;18.40;57.50
69492;DHT22;56692;52.016;4.356;2023-04-01T15:39:19;18.10;58.30
69492;DHT22;56692;52.016;4.356;2023-04-01T15:42:04;18.10;58.30
69492;DHT22;56692;52.016;4.356;2023-04-01T15:45:03;18.10;58.80
69492;DHT22;56692;52.016;4.356;2023-04-01T15:55:46;18.30;58.80
69492;DHT22;56692;52.016;4.356;2023-04-01T15:58:41;18.40;58.60
69492;DHT22;56692;52.016;4.356;2023-04-01T16:01:44;18.50;58.30
69492;DHT22;56692;52.016;4.356;2023-04-01T16:21:13;19.00;57.20
69492;DHT22;56692;52.016;4.356;2023-04-01T16:23:59;19.00;57.20
69492;DHT22;56692;52.016;4.356;2023-04-01T16:36:51;19.20;56.70
69492;DHT22;56692;52.016;4.356;2023-04-01T16:44:55;19.40;56.10
69492;DHT22;56692;52.016;4.356;2023-04-01T16:47:46;19.40;56.10
69492;DHT22;56692;52.016;4.356;2023-04-01T16:50:20;19.40;56.30
69492;DHT22;56692;52.016;4.356;2023-04-01T16:53:08;19.40;56.30
69492;DHT22;56692;52.016;4.356;2023-04-01T16:55:49;19.40;56.30
69492;DHT22;56692;52.016;4.356;2023-04-01T16:58:26;19.50;56.10
69492;DHT22;56692;52.016;4.356;2023-04-01T17:01:05;19.50;56.10
69492;DHT22;56692;52.016;4.356;2023-04-01T17:03:36;19.50;56.20
69492;DHT22;56692;52.016;4.356;2023-04-01T17:06:33;19.40;56.40
69492;DHT22;56692;52.016;4.356;2023-04-01T17:12:46;19.30;56.80
69492;DHT22;56692;52.016;4.356;2023-04-01T17:15:34;19.10;56.60
69492;DHT22;56692;52.016;4.356;2023-04-01T17:24:14;18.70;58.20
69492;DHT22;56692;52.016;4.356;2023-04-01T17:29:35;18.60;59.10
69492;DHT22;56692;52.016;4.356;2023-04-01T17:35:04;18.60;59.70
69492;DHT22;56692;52.016;4.356;2023-04-01T17:38:48;18.50;59.60
69492;DHT22;56692;52.016;4.356;2023-04-01T17:48:45;18.40;59.90
69492;DHT22;56692;52.016;4.356;2023-04-01T17:51:28;18.40;60.00
69492;DHT22;56692;52.016;4.356;2023-04-01T18:00:19;18.40;59.90
69492;DHT22;56692;52.016;4.356;2023-04-01T18:08:53;18.70;59.20
69492;DHT22;56692;52.016;4.356;2023-04-01T18:16:51;19.00;58.40
69492;DHT22;56692;52.016;4.356;2023-04-01T18:19:46;19.00;58.50
69492;DHT22;56692;52.016;4.356;2023-04-01T18:22:41;19.10;58.40
69492;DHT22;56692;52.016;4.356;2023-04-01T18:25:33;19.10;58.70
69492;DHT22;56692;52.016;4.356;2023-04-01T18:30:39;19.20;58.30
69492;DHT22;56692;52.016;4.356;2023-04-01T18:38:38;19.20;58.10
69492;DHT22;56692;52.016;4.356;2023-04-01T18:41:30;19.30;58.20
69492;DHT22;56692;52.016;4.356;2023-04-01T18:44:30;19.40;57.80
69492;DHT22;56692;52.016;4.356;2023-04-01T18:50:07;19.50;57.30
69492;DHT22;56692;52.016;4.356;2023-04-01T18:52:40;19.40;57.30
69492;DHT22;56692;52.016;4.356;2023-04-01T18:55:29;19.40;57.30
69492;DHT22;56692;52.016;4.356;2023-04-01T18:58:20;19.50;57.00
69492;DHT22;56692;52.016;4.356;2023-04-01T19:03:24;19.60;56.90
69492;DHT22;56692;52.016;4.356;2023-04-01T19:05:56;19.60;56.90
69492;DHT22;56692;52.016;4.356;2023-04-01T19:08:35;19.60;56.70
69492;DHT22;56692;52.016;4.356;2023-04-01T19:11:14;19.60;56.70
69492;DHT22;56692;52.016;4.356;2023-04-01T19:19:46;19.40;57.30
69492;DHT22;56692;52.016;4.356;2023-04-01T19:25:07;19.30;57.20
69492;DHT22;56692;52.016;4.356;2023-04-01T19:27:42;19.20;57.20
69492;DHT22;56692;52.016;4.356;2023-04-01T19:30:17;19.10;57.30
69492;DHT22;56692;52.016;4.356;2023-04-01T19:35:44;18.90;57.70
69492;DHT22;56692;52.016;4.356;2023-04-01T19:38:39;18.80;57.80
69492;DHT22;56692;52.016;4.356;2023-04-01T19:44:33;18.70;58.40
69492;DHT22;56692;52.016;4.356;2023-04-01T19:56:24;18.50;58.70
69492;DHT22;56692;52.016;4.356;2023-04-01T19:59:13;18.50;58.70
69492;DHT22;56692;52.016;4.356;2023-04-01T20:04:48;18.50;58.60
69492;DHT22;56692;52.016;4.356;2023-04-01T20:07:27;18.40;58.60
69492;DHT22;56692;52.016;4.356;2023-04-01T20:10:20;18.40;58.80
69492;DHT22;56692;52.016;4.356;2023-04-01T20:12:51;18.40;58.70
69492;DHT22;56692;52.016;4.356;2023-04-01T20:17:52;18.40;58.70
69492;DHT22;56692;52.016;4.356;2023-04-01T20:20:26;18.40;58.80
69492;DHT22;56692;52.016;4.356;2023-04-01T20:23:05;18.30;58.80
69492;DHT22;56692;52.016;4.356;2023-04-01T20:25:52;18.30;58.90
69492;DHT22;56692;52.016;4.356;2023-04-01T20:31:18;18.30;58.90
69492;DHT22;56692;52.016;4.356;2023-04-01T20:40:12;18.20;58.90
69492;DHT22;56692;52.016;4.356;2023-04-01T20:51:34;18.10;59.10
69492;DHT22;56692;52.016;4.356;2023-04-01T20:57:11;18.10;59.10
69492;DHT22;56692;52.016;4.356;2023-04-01T21:02:37;18.00;59.20
69492;DHT22;56692;52.016;4.356;2023-04-01T21:05:48;18.00;59.20
69492;DHT22;56692;52.016;4.356;2023-04-01T21:08:44;18.00;59.10
69492;DHT22;56692;52.016;4.356;2023-04-01T21:11:35;18.00;59.00
69492;DHT22;56692;52.016;4.356;2023-04-01T21:17:22;17.90;58.20
69492;DHT22;56692;52.016;4.356;2023-04-01T21:30:58;17.70;57.80
69492;DHT22;56692;52.016;4.356;2023-04-01T21:36:23;17.70;57.40
69492;DHT22;56692;52.016;4.356;2023-04-01T21:41:44;17.60;57.20
69492;DHT22;56692;52.016;4.356;2023-04-01T21:44:58;17.60;57.20
69492;DHT22;56692;52.016;4.356;2023-04-01T22:04:53;17.40;56.80
69492;DHT22;56692;52.016;4.356;2023-04-01T22:07:38;17.30;57.00
69492;DHT22;56692;52.016;4.356;2023-04-01T22:13:12;17.30;56.90
69492;DHT22;56692;52.016;4.356;2023-04-01T22:20:59;17.20;56.60
69492;DHT22;56692;52.016;4.356;2023-04-01T22:29:21;17.20;56.60
69492;DHT22;56692;52.016;4.356;2023-04-01T22:37:21;17.10;56.60
69492;DHT22;56692;52.016;4.356;2023-04-01T22:40:12;17.10;56.40
69492;DHT22;56692;52.016;4.356;2023-04-01T22:42:47;17.10;56.30
69492;DHT22;56692;52.016;4.356;2023-04-01T22:48:18;17.10;56.20
69492;DHT22;56692;52.016;4.356;2023-04-01T23:01:29;16.90;56.10
69492;DHT22;56692;52.016;4.356;2023-04-01T23:03:56;16.90;56.00
69492;DHT22;56692;52.016;4.356;2023-04-01T23:06:42;16.90;56.10
69492;DHT22;56692;52.016;4.356;2023-04-01T23:09:13;16.90;55.90
69492;DHT22;56692;52.016;4.356;2023-04-01T23:12:09;16.90;55.90
69492;DHT22;56692;52.016;4.356;2023-04-01T23:14:54;16.80;56.00
69492;DHT22;56692;52.016;4.356;2023-04-01T23:17:41;16.80;56.00
69492;DHT22;56692;52.016;4.356;2023-04-01T23:28:54;16.80;55.90
69492;DHT22;56692;52.016;4.356;2023-04-01T23:37:04;16.70;55.90
69492;DHT22;56692;52.016;4.356;2023-04-01T23:39:36;16.70;55.70
69492;DHT22;56692;52.016;4.356;2023-04-01T23:42:25;16.70;55.80
69492;DHT22;56692;52.016;4.356;2023-04-01T23:45:01;16.70;55.70
69492;DHT22;56692;52.016;4.356;2023-04-01T23:47:37;16.70;55.70
69492;DHT22;56692;52.016;4.356;2023-04-01T23:50:10;16.60;55.60
69492;DHT22;56692;52.016;4.356;2023-04-01T23:52:46;16.60;55.60
69492;DHT22;56692;52.016;4.356;2023-04-01T23:55:23;16.60;55.60
